ETNW

Wunstorf Airport

Germany
METAR ETNW 220620Z AUTO 24012KT 5000 // ////// 11/08 Q1017 ///
Observed Flight Rules
Sep-22 @ 06:20 UTC (an hour ago)
Wind Visibility
240° at 12 knots 5,005 meters
Temperatures Readings
Current 11°C / 52°F
Dewpoint 8°C / 46°F
Humidity 82%
Altimeter 30.03" Hg
Pressure 1017 hPa
Elevation 70
METAR ETNW 220620Z AUTO 24012KT 5000 // ////// 11/08 Q1017 ///
Observed Flight Rules
Sep-22 @ 06:20 UTC
(an hour ago)
Wind Visibility
240° at 12 knots 5,005 meters
Temperature Dewpoint
11°C / 52°F 8°C / 46°F
Humidity Altimeter Pressure
82% 30.03" Hg 1017 hPa